sensor_id;sensor_type;location;lat;lon;timestamp;P1;durP1;ratioP1;P2;durP2;ratioP2
35777;SDS011;21899;42.662;23.316;2023-07-16T00:01:37;10.75;;;7.22;;
35777;SDS011;21899;42.662;23.316;2023-07-16T00:04:02;13.27;;;6.65;;
35777;SDS011;21899;42.662;23.316;2023-07-16T00:06:28;13.50;;;6.90;;
35777;SDS011;21899;42.662;23.316;2023-07-16T00:08:53;12.30;;;6.70;;
35777;SDS011;21899;42.662;23.316;2023-07-16T00:11:19;8.55;;;6.07;;
35777;SDS011;21899;42.662;23.316;2023-07-16T00:13:44;12.18;;;6.60;;
35777;SDS011;21899;42.662;23.316;2023-07-16T00:16:12;9.82;;;6.47;;
35777;SDS011;21899;42.662;23.316;2023-07-16T00:18:38;9.60;;;6.43;;
35777;SDS011;21899;42.662;23.316;2023-07-16T00:21:04;9.30;;;6.15;;
35777;SDS011;21899;42.662;23.316;2023-07-16T00:23:29;13.35;;;6.70;;
35777;SDS011;21899;42.662;23.316;2023-07-16T00:25:54;12.23;;;6.70;;
35777;SDS011;21899;42.662;23.316;2023-07-16T00:28:20;11.25;;;5.55;;
35777;SDS011;21899;42.662;23.316;2023-07-16T00:30:45;9.02;;;5.82;;
35777;SDS011;21899;42.662;23.316;2023-07-16T00:33:11;13.10;;;7.45;;
35777;SDS011;21899;42.662;23.316;2023-07-16T00:35:36;9.13;;;5.65;;
35777;SDS011;21899;42.662;23.316;2023-07-16T00:38:02;11.05;;;6.85;;
35777;SDS011;21899;42.662;23.316;2023-07-16T00:40:27;8.30;;;5.65;;
35777;SDS011;21899;42.662;23.316;2023-07-16T00:42:52;8.95;;;6.03;;
35777;SDS011;21899;42.662;23.316;2023-07-16T00:45:18;8.55;;;5.90;;
35777;SDS011;21899;42.662;23.316;2023-07-16T00:47:43;9.32;;;6.65;;
35777;SDS011;21899;42.662;23.316;2023-07-16T00:50:10;12.43;;;7.25;;
35777;SDS011;21899;42.662;23.316;2023-07-16T00:52:36;7.93;;;5.60;;
35777;SDS011;21899;42.662;23.316;2023-07-16T00:55:02;8.32;;;5.93;;
35777;SDS011;21899;42.662;23.316;2023-07-16T00:57:28;9.77;;;5.85;;
35777;SDS011;21899;42.662;23.316;2023-07-16T00:59:54;11.73;;;6.45;;
35777;SDS011;21899;42.662;23.316;2023-07-16T01:02:20;8.88;;;5.10;;
35777;SDS011;21899;42.662;23.316;2023-07-16T01:04:45;10.43;;;5.60;;
35777;SDS011;21899;42.662;23.316;2023-07-16T01:07:11;9.32;;;5.65;;
35777;SDS011;21899;42.662;23.316;2023-07-16T01:09:41;7.93;;;5.38;;
35777;SDS011;21899;42.662;23.316;2023-07-16T01:12:07;7.72;;;4.72;;
35777;SDS011;21899;42.662;23.316;2023-07-16T01:14:33;7.18;;;4.68;;
35777;SDS011;21899;42.662;23.316;2023-07-16T01:17:02;8.32;;;5.55;;
35777;SDS011;21899;42.662;23.316;2023-07-16T01:19:29;8.30;;;5.18;;
35777;SDS011;21899;42.662;23.316;2023-07-16T01:27:28;6.97;;;4.75;;
35777;SDS011;21899;42.662;23.316;2023-07-16T01:30:05;7.68;;;4.80;;
35777;SDS011;21899;42.662;23.316;2023-07-16T01:32:34;7.68;;;4.90;;
35777;SDS011;21899;42.662;23.316;2023-07-16T01:35:02;7.30;;;5.35;;
35777;SDS011;21899;42.662;23.316;2023-07-16T01:37:33;8.07;;;4.97;;
35777;SDS011;21899;42.662;23.316;2023-07-16T01:39:58;7.28;;;5.10;;
35777;SDS011;21899;42.662;23.316;2023-07-16T01:42:23;8.38;;;5.47;;
35777;SDS011;21899;42.662;23.316;2023-07-16T01:44:49;7.22;;;5.18;;
35777;SDS011;21899;42.662;23.316;2023-07-16T01:47:23;9.35;;;4.65;;
35777;SDS011;21899;42.662;23.316;2023-07-16T01:49:58;8.10;;;4.85;;
35777;SDS011;21899;42.662;23.316;2023-07-16T01:52:23;5.07;;;3.90;;
35777;SDS011;21899;42.662;23.316;2023-07-16T01:54:48;6.15;;;4.25;;
35777;SDS011;21899;42.662;23.316;2023-07-16T01:57:14;6.18;;;4.35;;
35777;SDS011;21899;42.662;23.316;2023-07-16T01:59:39;9.63;;;5.13;;
35777;SDS011;21899;42.662;23.316;2023-07-16T02:02:05;7.03;;;5.18;;
35777;SDS011;21899;42.662;23.316;2023-07-16T02:04:30;9.82;;;5.32;;
35777;SDS011;21899;42.662;23.316;2023-07-16T02:06:56;11.00;;;5.22;;
35777;SDS011;21899;42.662;23.316;2023-07-16T02:09:21;6.63;;;4.18;;
35777;SDS011;21899;42.662;23.316;2023-07-16T02:11:47;9.02;;;5.18;;
35777;SDS011;21899;42.662;23.316;2023-07-16T02:14:12;6.97;;;4.82;;
35777;SDS011;21899;42.662;23.316;2023-07-16T02:16:39;7.70;;;4.68;;
35777;SDS011;21899;42.662;23.316;2023-07-16T02:19:05;8.20;;;4.32;;
35777;SDS011;21899;42.662;23.316;2023-07-16T02:21:30;8.77;;;3.95;;
35777;SDS011;21899;42.662;23.316;2023-07-16T02:23:56;6.15;;;4.82;;
35777;SDS011;21899;42.662;23.316;2023-07-16T02:26:21;7.00;;;4.55;;
35777;SDS011;21899;42.662;23.316;2023-07-16T02:28:47;5.75;;;4.13;;
35777;SDS011;21899;42.662;23.316;2023-07-16T02:31:12;6.63;;;4.28;;
35777;SDS011;21899;42.662;23.316;2023-07-16T02:33:37;6.88;;;4.55;;
35777;SDS011;21899;42.662;23.316;2023-07-16T02:36:03;6.70;;;4.55;;
35777;SDS011;21899;42.662;23.316;2023-07-16T02:38:28;6.82;;;5.03;;
35777;SDS011;21899;42.662;23.316;2023-07-16T02:40:54;6.53;;;4.25;;
35777;SDS011;21899;42.662;23.316;2023-07-16T02:43:19;5.82;;;3.88;;
35777;SDS011;21899;42.662;23.316;2023-07-16T02:45:44;6.55;;;4.15;;
35777;SDS011;21899;42.662;23.316;2023-07-16T02:48:10;7.50;;;4.30;;
35777;SDS011;21899;42.662;23.316;2023-07-16T02:50:36;7.28;;;4.05;;
35777;SDS011;21899;42.662;23.316;2023-07-16T02:53:05;10.63;;;4.25;;
35777;SDS011;21899;42.662;23.316;2023-07-16T02:55:32;8.98;;;4.50;;
35777;SDS011;21899;42.662;23.316;2023-07-16T02:57:59;5.75;;;3.80;;
35777;SDS011;21899;42.662;23.316;2023-07-16T03:00:27;5.65;;;4.20;;
35777;SDS011;21899;42.662;23.316;2023-07-16T03:02:53;7.15;;;4.38;;
35777;SDS011;21899;42.662;23.316;2023-07-16T03:05:18;8.38;;;4.03;;
35777;SDS011;21899;42.662;23.316;2023-07-16T03:07:44;8.15;;;4.82;;
35777;SDS011;21899;42.662;23.316;2023-07-16T03:10:09;7.32;;;4.82;;
35777;SDS011;21899;42.662;23.316;2023-07-16T03:12:35;5.25;;;3.83;;
35777;SDS011;21899;42.662;23.316;2023-07-16T03:15:00;6.60;;;4.40;;
35777;SDS011;21899;42.662;23.316;2023-07-16T03:17:26;7.43;;;4.85;;
35777;SDS011;21899;42.662;23.316;2023-07-16T03:19:51;5.82;;;3.97;;
35777;SDS011;21899;42.662;23.316;2023-07-16T03:22:16;6.95;;;4.47;;
35777;SDS011;21899;42.662;23.316;2023-07-16T03:24:42;7.00;;;4.50;;
35777;SDS011;21899;42.662;23.316;2023-07-16T03:27:07;8.93;;;3.78;;
35777;SDS011;21899;42.662;23.316;2023-07-16T03:29:33;9.88;;;4.32;;
35777;SDS011;21899;42.662;23.316;2023-07-16T03:31:58;8.27;;;4.05;;
35777;SDS011;21899;42.662;23.316;2023-07-16T03:34:24;6.90;;;4.25;;
35777;SDS011;21899;42.662;23.316;2023-07-16T03:36:49;6.05;;;3.65;;
35777;SDS011;21899;42.662;23.316;2023-07-16T03:39:15;7.15;;;4.38;;
35777;SDS011;21899;42.662;23.316;2023-07-16T03:41:40;7.15;;;4.20;;
35777;SDS011;21899;42.662;23.316;2023-07-16T03:44:05;6.78;;;4.82;;
35777;SDS011;21899;42.662;23.316;2023-07-16T03:46:31;8.00;;;4.78;;
35777;SDS011;21899;42.662;23.316;2023-07-16T03:48:56;7.05;;;3.67;;
35777;SDS011;21899;42.662;23.316;2023-07-16T03:51:21;7.57;;;4.55;;
35777;SDS011;21899;42.662;23.316;2023-07-16T03:53:47;6.93;;;4.45;;
35777;SDS011;21899;42.662;23.316;2023-07-16T03:56:12;8.15;;;4.00;;
35777;SDS011;21899;42.662;23.316;2023-07-16T03:58:38;6.68;;;4.00;;
35777;SDS011;21899;42.662;23.316;2023-07-16T04:01:03;7.03;;;3.83;;
35777;SDS011;21899;42.662;23.316;2023-07-16T04:03:28;7.28;;;4.10;;
35777;SDS011;21899;42.662;23.316;2023-07-16T04:06:03;6.13;;;4.18;;
35777;SDS011;21899;42.662;23.316;2023-07-16T04:08:29;8.00;;;4.10;;
35777;SDS011;21899;42.662;23.316;2023-07-16T04:10:55;5.75;;;3.63;;
35777;SDS011;21899;42.662;23.316;2023-07-16T04:13:20;6.95;;;4.18;;
35777;SDS011;21899;42.662;23.316;2023-07-16T04:15:46;6.20;;;3.92;;
35777;SDS011;21899;42.662;23.316;2023-07-16T04:18:11;6.47;;;3.92;;
35777;SDS011;21899;42.662;23.316;2023-07-16T04:20:36;5.38;;;3.65;;
35777;SDS011;21899;42.662;23.316;2023-07-16T04:23:02;8.18;;;4.03;;
35777;SDS011;21899;42.662;23.316;2023-07-16T04:25:27;9.30;;;3.88;;
35777;SDS011;21899;42.662;23.316;2023-07-16T04:27:53;5.28;;;4.05;;
35777;SDS011;21899;42.662;23.316;2023-07-16T04:30:18;7.07;;;3.90;;
35777;SDS011;21899;42.662;23.316;2023-07-16T04:32:44;5.70;;;4.13;;
35777;SDS011;21899;42.662;23.316;2023-07-16T04:35:09;8.98;;;4.28;;
35777;SDS011;21899;42.662;23.316;2023-07-16T04:37:34;5.45;;;4.20;;
35777;SDS011;21899;42.662;23.316;2023-07-16T04:40:00;5.38;;;3.80;;
35777;SDS011;21899;42.662;23.316;2023-07-16T04:42:25;6.30;;;4.07;;
35777;SDS011;21899;42.662;23.316;2023-07-16T04:44:50;5.68;;;4.00;;
35777;SDS011;21899;42.662;23.316;2023-07-16T04:47:16;5.88;;;4.20;;
35777;SDS011;21899;42.662;23.316;2023-07-16T04:49:41;9.70;;;4.38;;
35777;SDS011;21899;42.662;23.316;2023-07-16T04:52:07;6.03;;;3.20;;
35777;SDS011;21899;42.662;23.316;2023-07-16T04:54:36;4.93;;;3.53;;
35777;SDS011;21899;42.662;23.316;2023-07-16T04:57:03;5.72;;;3.92;;
35777;SDS011;21899;42.662;23.316;2023-07-16T04:59:29;7.38;;;3.85;;
35777;SDS011;21899;42.662;23.316;2023-07-16T05:01:54;4.78;;;3.13;;
35777;SDS011;21899;42.662;23.316;2023-07-16T05:04:20;5.28;;;3.53;;
35777;SDS011;21899;42.662;23.316;2023-07-16T05:06:45;4.65;;;3.42;;
35777;SDS011;21899;42.662;23.316;2023-07-16T05:09:10;6.53;;;3.80;;
35777;SDS011;21899;42.662;23.316;2023-07-16T05:11:36;5.22;;;3.88;;
35777;SDS011;21899;42.662;23.316;2023-07-16T05:14:03;7.93;;;3.45;;
35777;SDS011;21899;42.662;23.316;2023-07-16T05:16:28;4.22;;;3.25;;
35777;SDS011;21899;42.662;23.316;2023-07-16T05:18:54;6.82;;;3.67;;
35777;SDS011;21899;42.662;23.316;2023-07-16T05:21:19;5.45;;;3.65;;
35777;SDS011;21899;42.662;23.316;2023-07-16T05:23:45;7.32;;;3.50;;
35777;SDS011;21899;42.662;23.316;2023-07-16T05:26:10;7.10;;;3.58;;
35777;SDS011;21899;42.662;23.316;2023-07-16T05:28:35;6.57;;;3.10;;
35777;SDS011;21899;42.662;23.316;2023-07-16T05:31:01;8.15;;;3.78;;
35777;SDS011;21899;42.662;23.316;2023-07-16T05:33:27;5.85;;;3.75;;
35777;SDS011;21899;42.662;23.316;2023-07-16T05:35:53;5.55;;;3.90;;
35777;SDS011;21899;42.662;23.316;2023-07-16T05:38:18;8.38;;;3.58;;
35777;SDS011;21899;42.662;23.316;2023-07-16T05:40:44;5.53;;;3.10;;
35777;SDS011;21899;42.662;23.316;2023-07-16T05:43:09;6.53;;;4.07;;
35777;SDS011;21899;42.662;23.316;2023-07-16T05:45:35;6.18;;;4.47;;
35777;SDS011;21899;42.662;23.316;2023-07-16T05:48:00;10.60;;;4.47;;
35777;SDS011;21899;42.662;23.316;2023-07-16T05:50:25;4.82;;;3.53;;
35777;SDS011;21899;42.662;23.316;2023-07-16T05:52:51;7.20;;;4.28;;
35777;SDS011;21899;42.662;23.316;2023-07-16T05:55:16;5.15;;;3.50;;
35777;SDS011;21899;42.662;23.316;2023-07-16T05:57:42;6.97;;;3.88;;
35777;SDS011;21899;42.662;23.316;2023-07-16T06:00:08;7.47;;;4.05;;
35777;SDS011;21899;42.662;23.316;2023-07-16T06:02:34;6.97;;;4.20;;
35777;SDS011;21899;42.662;23.316;2023-07-16T06:04:59;7.50;;;5.07;;
35777;SDS011;21899;42.662;23.316;2023-07-16T06:07:25;9.40;;;4.57;;
35777;SDS011;21899;42.662;23.316;2023-07-16T06:09:50;6.28;;;4.50;;
35777;SDS011;21899;42.662;23.316;2023-07-16T06:12:15;8.48;;;4.30;;
35777;SDS011;21899;42.662;23.316;2023-07-16T06:14:41;6.95;;;4.50;;
35777;SDS011;21899;42.662;23.316;2023-07-16T06:17:06;6.72;;;5.10;;
35777;SDS011;21899;42.662;23.316;2023-07-16T06:19:32;8.57;;;4.30;;
35777;SDS011;21899;42.662;23.316;2023-07-16T06:21:57;7.25;;;4.95;;
35777;SDS011;21899;42.662;23.316;2023-07-16T06:24:22;8.60;;;5.13;;
35777;SDS011;21899;42.662;23.316;2023-07-16T06:26:48;11.48;;;5.32;;
35777;SDS011;21899;42.662;23.316;2023-07-16T06:29:13;7.53;;;4.68;;
35777;SDS011;21899;42.662;23.316;2023-07-16T06:31:39;7.68;;;5.07;;
35777;SDS011;21899;42.662;23.316;2023-07-16T06:34:04;7.30;;;4.75;;
35777;SDS011;21899;42.662;23.316;2023-07-16T06:36:29;8.77;;;5.15;;
35777;SDS011;21899;42.662;23.316;2023-07-16T06:38:55;6.95;;;4.65;;
35777;SDS011;21899;42.662;23.316;2023-07-16T06:41:20;6.13;;;4.70;;
35777;SDS011;21899;42.662;23.316;2023-07-16T06:43:46;7.78;;;4.93;;
35777;SDS011;21899;42.662;23.316;2023-07-16T06:46:11;7.20;;;4.85;;
35777;SDS011;21899;42.662;23.316;2023-07-16T06:48:37;6.80;;;4.90;;
35777;SDS011;21899;42.662;23.316;2023-07-16T06:51:02;7.55;;;4.72;;
35777;SDS011;21899;42.662;23.316;2023-07-16T06:53:28;6.38;;;4.70;;
35777;SDS011;21899;42.662;23.316;2023-07-16T06:55:53;8.55;;;4.95;;
35777;SDS011;21899;42.662;23.316;2023-07-16T06:58:18;6.63;;;4.82;;
35777;SDS011;21899;42.662;23.316;2023-07-16T07:00:44;6.50;;;4.78;;
35777;SDS011;21899;42.662;23.316;2023-07-16T07:03:09;7.70;;;4.45;;
35777;SDS011;21899;42.662;23.316;2023-07-16T07:05:35;6.50;;;4.82;;
35777;SDS011;21899;42.662;23.316;2023-07-16T07:08:03;6.60;;;4.85;;
35777;SDS011;21899;42.662;23.316;2023-07-16T07:10:29;7.00;;;5.18;;
35777;SDS011;21899;42.662;23.316;2023-07-16T07:12:54;5.20;;;4.18;;
35777;SDS011;21899;42.662;23.316;2023-07-16T07:15:19;7.22;;;4.63;;
35777;SDS011;21899;42.662;23.316;2023-07-16T07:17:45;7.57;;;4.55;;
35777;SDS011;21899;42.662;23.316;2023-07-16T07:20:11;8.02;;;4.97;;
35777;SDS011;21899;42.662;23.316;2023-07-16T07:22:38;7.95;;;4.68;;
35777;SDS011;21899;42.662;23.316;2023-07-16T07:25:03;9.32;;;4.40;;
35777;SDS011;21899;42.662;23.316;2023-07-16T07:27:29;6.43;;;4.70;;
35777;SDS011;21899;42.662;23.316;2023-07-16T07:29:55;7.55;;;4.85;;
35777;SDS011;21899;42.662;23.316;2023-07-16T07:32:20;6.88;;;4.85;;
35777;SDS011;21899;42.662;23.316;2023-07-16T07:34:46;7.72;;;5.65;;
35777;SDS011;21899;42.662;23.316;2023-07-16T07:37:12;6.88;;;4.93;;
35777;SDS011;21899;42.662;23.316;2023-07-16T07:39:38;11.35;;;4.95;;
35777;SDS011;21899;42.662;23.316;2023-07-16T07:42:03;8.88;;;5.18;;
35777;SDS011;21899;42.662;23.316;2023-07-16T07:44:29;7.22;;;4.57;;
35777;SDS011;21899;42.662;23.316;2023-07-16T07:46:54;7.07;;;5.07;;
35777;SDS011;21899;42.662;23.316;2023-07-16T07:49:20;5.93;;;4.70;;
35777;SDS011;21899;42.662;23.316;2023-07-16T07:51:45;7.88;;;5.03;;
35777;SDS011;21899;42.662;23.316;2023-07-16T07:54:12;7.47;;;5.00;;
35777;SDS011;21899;42.662;23.316;2023-07-16T07:56:37;9.13;;;5.22;;
35777;SDS011;21899;42.662;23.316;2023-07-16T07:59:03;6.43;;;4.68;;
35777;SDS011;21899;42.662;23.316;2023-07-16T08:01:29;7.53;;;5.20;;
35777;SDS011;21899;42.662;23.316;2023-07-16T08:03:54;7.00;;;4.72;;
35777;SDS011;21899;42.662;23.316;2023-07-16T08:06:20;9.82;;;5.60;;
35777;SDS011;21899;42.662;23.316;2023-07-16T08:08:45;7.93;;;5.05;;
35777;SDS011;21899;42.662;23.316;2023-07-16T08:11:10;9.07;;;4.97;;
35777;SDS011;21899;42.662;23.316;2023-07-16T08:13:36;6.00;;;4.63;;
35777;SDS011;21899;42.662;23.316;2023-07-16T08:16:01;11.48;;;4.75;;
35777;SDS011;21899;42.662;23.316;2023-07-16T08:18:27;6.55;;;4.60;;
35777;SDS011;21899;42.662;23.316;2023-07-16T08:20:52;5.90;;;4.55;;
35777;SDS011;21899;42.662;23.316;2023-07-16T08:23:17;8.70;;;5.40;;
35777;SDS011;21899;42.662;23.316;2023-07-16T08:25:43;8.95;;;4.90;;
35777;SDS011;21899;42.662;23.316;2023-07-16T08:28:09;8.10;;;5.32;;
35777;SDS011;21899;42.662;23.316;2023-07-16T08:30:35;6.95;;;5.13;;
35777;SDS011;21899;42.662;23.316;2023-07-16T08:33:00;9.32;;;5.28;;
35777;SDS011;21899;42.662;23.316;2023-07-16T08:35:26;9.57;;;4.70;;
35777;SDS011;21899;42.662;23.316;2023-07-16T08:37:51;5.93;;;4.53;;
35777;SDS011;21899;42.662;23.316;2023-07-16T08:40:16;7.70;;;4.93;;
35777;SDS011;21899;42.662;23.316;2023-07-16T08:42:45;9.00;;;5.15;;
35777;SDS011;21899;42.662;23.316;2023-07-16T08:45:11;8.18;;;5.00;;
35777;SDS011;21899;42.662;23.316;2023-07-16T08:47:37;7.70;;;5.30;;
35777;SDS011;21899;42.662;23.316;2023-07-16T08:50:03;8.63;;;5.60;;
35777;SDS011;21899;42.662;23.316;2023-07-16T08:52:29;12.85;;;5.22;;
35777;SDS011;21899;42.662;23.316;2023-07-16T08:54:54;8.65;;;5.60;;
35777;SDS011;21899;42.662;23.316;2023-07-16T08:57:20;6.50;;;5.15;;
35777;SDS011;21899;42.662;23.316;2023-07-16T08:59:50;10.30;;;5.95;;
35777;SDS011;21899;42.662;23.316;2023-07-16T09:02:19;11.55;;;6.13;;
35777;SDS011;21899;42.662;23.316;2023-07-16T09:04:46;7.53;;;5.70;;
35777;SDS011;21899;42.662;23.316;2023-07-16T09:07:13;9.30;;;5.80;;
35777;SDS011;21899;42.662;23.316;2023-07-16T09:09:38;13.43;;;5.88;;
35777;SDS011;21899;42.662;23.316;2023-07-16T09:12:04;7.20;;;5.25;;
35777;SDS011;21899;42.662;23.316;2023-07-16T09:14:29;8.73;;;5.70;;
35777;SDS011;21899;42.662;23.316;2023-07-16T09:16:55;9.07;;;5.80;;
35777;SDS011;21899;42.662;23.316;2023-07-16T09:19:21;10.27;;;6.00;;
35777;SDS011;21899;42.662;23.316;2023-07-16T09:21:47;8.73;;;5.70;;
35777;SDS011;21899;42.662;23.316;2023-07-16T09:24:16;7.30;;;5.68;;
35777;SDS011;21899;42.662;23.316;2023-07-16T09:26:49;7.38;;;5.28;;
35777;SDS011;21899;42.662;23.316;2023-07-16T09:29:15;8.70;;;6.00;;
35777;SDS011;21899;42.662;23.316;2023-07-16T09:31:52;10.40;;;5.60;;
35777;SDS011;21899;42.662;23.316;2023-07-16T09:34:32;13.57;;;5.68;;
35777;SDS011;21899;42.662;23.316;2023-07-16T09:36:58;9.32;;;5.95;;
35777;SDS011;21899;42.662;23.316;2023-07-16T09:39:26;9.82;;;6.18;;
35777;SDS011;21899;42.662;23.316;2023-07-16T09:41:52;7.18;;;5.30;;
35777;SDS011;21899;42.662;23.316;2023-07-16T09:44:19;8.15;;;5.80;;
35777;SDS011;21899;42.662;23.316;2023-07-16T09:46:45;9.65;;;6.88;;
35777;SDS011;21899;42.662;23.316;2023-07-16T09:49:11;12.25;;;6.35;;
35777;SDS011;21899;42.662;23.316;2023-07-16T09:51:37;10.65;;;6.20;;
35777;SDS011;21899;42.662;23.316;2023-07-16T09:54:04;9.30;;;6.25;;
35777;SDS011;21899;42.662;23.316;2023-07-16T09:56:39;15.40;;;6.47;;
35777;SDS011;21899;42.662;23.316;2023-07-16T09:59:16;11.63;;;5.95;;
35777;SDS011;21899;42.662;23.316;2023-07-16T10:01:45;10.13;;;6.38;;
35777;SDS011;21899;42.662;23.316;2023-07-16T10:04:19;9.10;;;6.70;;
35777;SDS011;21899;42.662;23.316;2023-07-16T10:12:08;9.15;;;6.13;;
35777;SDS011;21899;42.662;23.316;2023-07-16T10:14:47;7.75;;;6.22;;
35777;SDS011;21899;42.662;23.316;2023-07-16T10:17:18;8.68;;;5.82;;
35777;SDS011;21899;42.662;23.316;2023-07-16T10:22:37;9.02;;;6.10;;
35777;SDS011;21899;42.662;23.316;2023-07-16T10:25:08;9.02;;;6.50;;
35777;SDS011;21899;42.662;23.316;2023-07-16T10:27:35;8.05;;;6.40;;
35777;SDS011;21899;42.662;23.316;2023-07-16T10:30:02;8.93;;;6.43;;
35777;SDS011;21899;42.662;23.316;2023-07-16T10:32:30;8.95;;;6.47;;
35777;SDS011;21899;42.662;23.316;2023-07-16T10:34:57;10.23;;;6.75;;
35777;SDS011;21899;42.662;23.316;2023-07-16T10:37:23;10.20;;;6.72;;
35777;SDS011;21899;42.662;23.316;2023-07-16T10:39:50;11.32;;;6.47;;
35777;SDS011;21899;42.662;23.316;2023-07-16T10:42:16;8.38;;;6.60;;
35777;SDS011;21899;42.662;23.316;2023-07-16T10:44:43;7.78;;;6.20;;
35777;SDS011;21899;42.662;23.316;2023-07-16T10:47:10;8.65;;;6.18;;
35777;SDS011;21899;42.662;23.316;2023-07-16T10:49:44;8.23;;;6.20;;
35777;SDS011;21899;42.662;23.316;2023-07-16T10:52:09;8.85;;;5.72;;
35777;SDS011;21899;42.662;23.316;2023-07-16T10:54:35;7.88;;;6.22;;
35777;SDS011;21899;42.662;23.316;2023-07-16T10:57:00;9.45;;;5.82;;
35777;SDS011;21899;42.662;23.316;2023-07-16T10:59:26;9.32;;;6.28;;
35777;SDS011;21899;42.662;23.316;2023-07-16T11:01:51;8.43;;;6.38;;
35777;SDS011;21899;42.662;23.316;2023-07-16T11:04:16;8.27;;;6.38;;
35777;SDS011;21899;42.662;23.316;2023-07-16T11:06:42;7.72;;;6.72;;
35777;SDS011;21899;42.662;23.316;2023-07-16T11:09:07;9.95;;;6.53;;
35777;SDS011;21899;42.662;23.316;2023-07-16T11:11:33;8.38;;;5.53;;
35777;SDS011;21899;42.662;23.316;2023-07-16T11:13:59;11.45;;;6.55;;
35777;SDS011;21899;42.662;23.316;2023-07-16T11:16:25;8.10;;;5.78;;
35777;SDS011;21899;42.662;23.316;2023-07-16T11:18:50;10.27;;;6.78;;
35777;SDS011;21899;42.662;23.316;2023-07-16T11:21:19;9.35;;;6.15;;
35777;SDS011;21899;42.662;23.316;2023-07-16T11:23:45;9.32;;;6.60;;
35777;SDS011;21899;42.662;23.316;2023-07-16T11:26:10;11.27;;;6.35;;
35777;SDS011;21899;42.662;23.316;2023-07-16T11:28:39;7.00;;;5.32;;
35777;SDS011;21899;42.662;23.316;2023-07-16T11:31:15;8.40;;;6.75;;
35777;SDS011;21899;42.662;23.316;2023-07-16T11:33:44;11.98;;;6.45;;
35777;SDS011;21899;42.662;23.316;2023-07-16T11:36:11;11.57;;;6.18;;
35777;SDS011;21899;42.662;23.316;2023-07-16T11:38:37;14.63;;;7.03;;
35777;SDS011;21899;42.662;23.316;2023-07-16T11:41:03;7.97;;;5.90;;
35777;SDS011;21899;42.662;23.316;2023-07-16T11:43:29;9.38;;;7.07;;
35777;SDS011;21899;42.662;23.316;2023-07-16T11:46:02;8.73;;;6.80;;
35777;SDS011;21899;42.662;23.316;2023-07-16T11:48:30;9.82;;;6.55;;
35777;SDS011;21899;42.662;23.316;2023-07-16T11:50:56;9.05;;;6.45;;
35777;SDS011;21899;42.662;23.316;2023-07-16T11:53:21;10.05;;;6.55;;
35777;SDS011;21899;42.662;23.316;2023-07-16T11:55:46;8.07;;;6.15;;
35777;SDS011;21899;42.662;23.316;2023-07-16T11:58:12;11.00;;;6.60;;
35777;SDS011;21899;42.662;23.316;2023-07-16T12:00:37;8.30;;;5.95;;
35777;SDS011;21899;42.662;23.316;2023-07-16T12:03:02;11.60;;;6.85;;
35777;SDS011;21899;42.662;23.316;2023-07-16T12:05:28;10.13;;;5.55;;
35777;SDS011;21899;42.662;23.316;2023-07-16T12:07:53;10.25;;;6.55;;
35777;SDS011;21899;42.662;23.316;2023-07-16T12:10:19;9.00;;;6.20;;
35777;SDS011;21899;42.662;23.316;2023-07-16T12:12:44;9.05;;;5.95;;
35777;SDS011;21899;42.662;23.316;2023-07-16T12:15:10;8.10;;;6.20;;
35777;SDS011;21899;42.662;23.316;2023-07-16T12:17:35;8.82;;;6.82;;
35777;SDS011;21899;42.662;23.316;2023-07-16T12:20:01;9.32;;;5.80;;
35777;SDS011;21899;42.662;23.316;2023-07-16T12:22:28;8.77;;;5.75;;
35777;SDS011;21899;42.662;23.316;2023-07-16T12:24:53;7.53;;;5.10;;
35777;SDS011;21899;42.662;23.316;2023-07-16T12:27:20;9.15;;;6.53;;
35777;SDS011;21899;42.662;23.316;2023-07-16T12:29:46;9.90;;;6.50;;
35777;SDS011;21899;42.662;23.316;2023-07-16T12:32:12;7.13;;;6.25;;
35777;SDS011;21899;42.662;23.316;2023-07-16T12:34:38;7.25;;;5.72;;
35777;SDS011;21899;42.662;23.316;2023-07-16T12:37:04;8.68;;;5.32;;
35777;SDS011;21899;42.662;23.316;2023-07-16T12:39:30;8.10;;;5.80;;
35777;SDS011;21899;42.662;23.316;2023-07-16T12:41:55;7.72;;;5.45;;
35777;SDS011;21899;42.662;23.316;2023-07-16T12:44:21;11.80;;;6.18;;
35777;SDS011;21899;42.662;23.316;2023-07-16T12:46:46;7.72;;;6.15;;
35777;SDS011;21899;42.662;23.316;2023-07-16T12:49:12;8.48;;;5.70;;
35777;SDS011;21899;42.662;23.316;2023-07-16T12:51:37;7.72;;;6.00;;
35777;SDS011;21899;42.662;23.316;2023-07-16T12:54:03;9.60;;;5.60;;
35777;SDS011;21899;42.662;23.316;2023-07-16T12:56:28;8.50;;;5.55;;
35777;SDS011;21899;42.662;23.316;2023-07-16T12:58:55;10.35;;;5.95;;
35777;SDS011;21899;42.662;23.316;2023-07-16T13:01:21;7.38;;;5.28;;
35777;SDS011;21899;42.662;23.316;2023-07-16T13:03:47;9.90;;;5.15;;
35777;SDS011;21899;42.662;23.316;2023-07-16T13:06:12;17.48;;;5.88;;
35777;SDS011;21899;42.662;23.316;2023-07-16T13:08:37;8.15;;;5.72;;
35777;SDS011;21899;42.662;23.316;2023-07-16T13:11:03;13.93;;;5.68;;
35777;SDS011;21899;42.662;23.316;2023-07-16T13:13:28;8.85;;;5.55;;
35777;SDS011;21899;42.662;23.316;2023-07-16T13:15:54;7.82;;;5.70;;
35777;SDS011;21899;42.662;23.316;2023-07-16T13:18:20;7.40;;;5.53;;
35777;SDS011;21899;42.662;23.316;2023-07-16T13:20:45;9.57;;;5.50;;
35777;SDS011;21899;42.662;23.316;2023-07-16T13:23:10;8.00;;;5.47;;
35777;SDS011;21899;42.662;23.316;2023-07-16T13:25:36;10.73;;;5.63;;
35777;SDS011;21899;42.662;23.316;2023-07-16T13:28:03;7.20;;;5.28;;
35777;SDS011;21899;42.662;23.316;2023-07-16T13:30:32;9.13;;;6.47;;
35777;SDS011;21899;42.662;23.316;2023-07-16T13:32:58;10.60;;;5.68;;
35777;SDS011;21899;42.662;23.316;2023-07-16T13:35:24;7.75;;;5.60;;
35777;SDS011;21899;42.662;23.316;2023-07-16T13:37:50;10.55;;;5.68;;
35777;SDS011;21899;42.662;23.316;2023-07-16T13:40:16;7.68;;;5.65;;
35777;SDS011;21899;42.662;23.316;2023-07-16T13:42:44;7.38;;;5.47;;
35777;SDS011;21899;42.662;23.316;2023-07-16T13:45:10;7.88;;;5.60;;
35777;SDS011;21899;42.662;23.316;2023-07-16T13:47:36;9.68;;;6.20;;
35777;SDS011;21899;42.662;23.316;2023-07-16T13:50:01;8.02;;;5.22;;
35777;SDS011;21899;42.662;23.316;2023-07-16T13:52:27;8.55;;;5.68;;
35777;SDS011;21899;42.662;23.316;2023-07-16T13:54:52;6.45;;;5.20;;
35777;SDS011;21899;42.662;23.316;2023-07-16T13:57:17;9.73;;;5.63;;
35777;SDS011;21899;42.662;23.316;2023-07-16T13:59:43;7.63;;;5.18;;
35777;SDS011;21899;42.662;23.316;2023-07-16T14:02:08;5.90;;;5.22;;
35777;SDS011;21899;42.662;23.316;2023-07-16T14:04:34;7.97;;;5.97;;
35777;SDS011;21899;42.662;23.316;2023-07-16T14:06:59;7.13;;;5.60;;
35777;SDS011;21899;42.662;23.316;2023-07-16T14:09:25;9.68;;;6.18;;
35777;SDS011;21899;42.662;23.316;2023-07-16T14:11:50;7.00;;;5.60;;
35777;SDS011;21899;42.662;23.316;2023-07-16T14:14:20;8.55;;;5.70;;
35777;SDS011;21899;42.662;23.316;2023-07-16T14:16:46;6.75;;;5.63;;
35777;SDS011;21899;42.662;23.316;2023-07-16T14:19:12;8.48;;;5.05;;
35777;SDS011;21899;42.662;23.316;2023-07-16T14:21:37;6.93;;;5.72;;
35777;SDS011;21899;42.662;23.316;2023-07-16T14:24:04;12.00;;;6.30;;
35777;SDS011;21899;42.662;23.316;2023-07-16T14:26:29;7.13;;;5.10;;
35777;SDS011;21899;42.662;23.316;2023-07-16T14:28:55;8.20;;;5.43;;
35777;SDS011;21899;42.662;23.316;2023-07-16T14:31:20;9.25;;;5.07;;
35777;SDS011;21899;42.662;23.316;2023-07-16T14:33:46;10.32;;;5.70;;
35777;SDS011;21899;42.662;23.316;2023-07-16T14:36:11;8.60;;;5.43;;
35777;SDS011;21899;42.662;23.316;2023-07-16T14:38:36;6.88;;;5.07;;
35777;SDS011;21899;42.662;23.316;2023-07-16T14:41:02;8.82;;;6.00;;